Terminal Aerodrome Forecast
Issued by NWS Portland, OR

Home | Current Version | Previous Version | Text Only | Print | Product List | Glossary On
Versions: 1 2 3 4 5 6 7 8 9 10 11 12 13 14 15 16 17 18 19 20 21 22 23 24 25 26 27 28 29 30 31 32
943
FTUS46 KPQR 060530
TAFAST
TAF
KAST 060530Z 0606/0706 24010KT P6SM -SHRA SCT025 BKN035 BKN060
     FM061400 24006KT P6SM VCSH SCT025 BKN045
     FM061900 VRB04KT P6SM BKN050
     FM070000 11005KT P6SM SCT050=

USA.gov is the U.S. government's official web portal to all federal, state and local government web resources and services.